Time;durP1;ratioP1;P1;durP2;ratioP2;P2;SDS_P1;SDS_P2;PMS_P1;PMS_P2;Temp;Humidity;BMP_temperature;BMP_pressure;BME280_temperature;BME280_humidity;BME280_pressure;Samples;Min_cycle;Max_cycle;Signal;HPM_P1;HPM_P2
2023/01/18 00:00:41;;;;;;;;;;;28.10;96.80;;;;;;5080978;28;19909;-67
2023/01/18 00:03:12;;;;;;;;;;;28.10;96.10;;;;;;5084009;28;20357;-68
2023/01/18 00:05:39;;;;;;;;;;;28.20;96.70;;;;;;5085166;28;19920;-67
2023/01/18 00:08:17;;;;;;;;;;;28.40;96.50;;;;;;5081946;28;20182;-68
2023/01/18 00:10:44;;;;;;;;;;;28.50;95.70;;;;;;5091504;28;20284;-68
2023/01/18 00:13:12;;;;;;;;;;;28.50;95.80;;;;;;5090845;28;19923;-68
2023/01/18 00:15:38;;;;;;;;;;;28.50;96.00;;;;;;5090790;28;19916;-68
2023/01/18 00:18:06;;;;;;;;;;;28.60;95.70;;;;;;5091317;28;19912;-67
2023/01/18 00:20:32;;;;;;;;;;;28.70;95.20;;;;;;5089131;28;19919;-68
2023/01/18 00:23:00;;;;;;;;;;;28.70;95.20;;;;;;5073473;28;20357;-68
2023/01/18 00:25:28;;;;;;;;;;;28.90;95.10;;;;;;5070433;28;20024;-69
2023/01/18 00:27:55;;;;;;;;;;;29.20;94.80;;;;;;5078350;28;19912;-68
2023/01/18 00:30:23;;;;;;;;;;;29.30;93.90;;;;;;5088810;28;20410;-68
2023/01/18 00:32:53;;;;;;;;;;;29.30;94.00;;;;;;5092043;28;19916;-68
2023/01/18 00:35:22;;;;;;;;;;;29.40;94.60;;;;;;5092033;28;19923;-66
2023/01/18 00:37:50;;;;;;;;;;;29.70;93.80;;;;;;5092069;28;19915;-68
2023/01/18 00:40:18;;;;;;;;;;;29.90;94.40;;;;;;5077119;28;19916;-68
2023/01/18 00:45:29;;;;;;;;;;;30.30;93.80;;;;;;5079868;28;19934;-69
2023/01/18 00:47:57;;;;;;;;;;;30.20;93.20;;;;;;5086696;28;19912;-69
2023/01/18 00:50:23;;;;;;;;;;;30.20;93.00;;;;;;5087937;28;19908;-68
2023/01/18 00:52:55;;;;;;;;;;;29.80;93.50;;;;;;5086929;28;19934;-69
2023/01/18 00:55:22;;;;;;;;;;;29.60;94.20;;;;;;5089212;28;19962;-69
2023/01/18 00:57:49;;;;;;;;;;;29.30;94.80;;;;;;5090097;28;20007;-69
2023/01/18 01:00:17;;;;;;;;;;;29.10;95.30;;;;;;5073909;28;19950;-68
2023/01/18 01:02:44;;;;;;;;;;;29.10;95.30;;;;;;5083812;28;19920;-68
2023/01/18 01:08:04;;;;;;;;;;;29.20;95.10;;;;;;5088184;28;19918;-69
2023/01/18 01:10:31;;;;;;;;;;;29.20;95.30;;;;;;5089825;28;19998;-68
2023/01/18 01:26:42;;;;;;;;;;;29.80;95.20;;;;;;5089874;28;19934;-71
2023/01/18 01:29:09;;;;;;;;;;;29.90;95.00;;;;;;5079574;28;19917;-71
2023/01/18 01:31:37;;;;;;;;;;;30.00;95.10;;;;;;5070507;28;19967;-72
2023/01/18 01:34:04;;;;;;;;;;;30.20;94.60;;;;;;5087274;28;19920;-71
2023/01/18 01:36:30;;;;;;;;;;;30.40;95.00;;;;;;5086945;28;20387;-71
2023/01/18 01:38:57;;;;;;;;;;;30.30;94.10;;;;;;5081521;28;19912;-72
2023/01/18 01:41:28;;;;;;;;;;;30.50;94.50;;;;;;5072664;28;19920;-70
2023/01/18 01:43:54;;;;;;;;;;;30.50;94.20;;;;;;5068647;28;20007;-72
2023/01/18 01:46:39;;;;;;;;;;;30.60;94.00;;;;;;5086869;28;19916;-72
2023/01/18 01:49:08;;;;;;;;;;;30.60;94.00;;;;;;5083785;28;20338;-72
2023/01/18 01:51:36;;;;;;;;;;;30.70;93.80;;;;;;5089976;28;19919;-72
2023/01/18 01:54:06;;;;;;;;;;;30.90;93.60;;;;;;5088747;28;19938;-72
2023/01/18 01:56:33;;;;;;;;;;;31.10;93.50;;;;;;5083547;28;19920;-75
2023/01/18 01:59:00;;;;;;;;;;;31.20;92.90;;;;;;5083011;28;19912;-73
2023/01/18 02:01:28;;;;;;;;;;;31.20;93.60;;;;;;5091174;28;19962;-73
2023/01/18 02:03:56;;;;;;;;;;;31.50;93.10;;;;;;5074479;28;20281;-73
2023/01/18 02:06:42;;;;;;;;;;;31.70;93.00;;;;;;5070414;28;19935;-71
2023/01/18 02:09:10;;;;;;;;;;;31.80;92.60;;;;;;5083780;28;19909;-71
2023/01/18 02:11:37;;;;;;;;;;;31.90;92.60;;;;;;5077991;28;19961;-71
2023/01/18 02:14:06;;;;;;;;;;;32.20;92.40;;;;;;5074939;28;20284;-72
2023/01/18 02:16:42;;;;;;;;;;;32.30;91.80;;;;;;5094300;28;19927;-70
2023/01/18 02:19:09;;;;;;;;;;;32.20;92.00;;;;;;5094531;28;19908;-72
2023/01/18 02:22:01;;;;;;;;;;;32.30;91.70;;;;;;5094949;28;19908;-72
2023/01/18 02:24:38;;;;;;;;;;;32.20;91.70;;;;;;5071880;28;19913;-71
2023/01/18 02:27:06;;;;;;;;;;;32.00;92.10;;;;;;5084875;28;19947;-74
2023/01/18 02:29:39;;;;;;;;;;;32.10;92.30;;;;;;5094045;28;20384;-71
2023/01/18 02:32:19;;;;;;;;;;;32.20;91.40;;;;;;5093119;28;19912;-75
2023/01/18 02:34:50;;;;;;;;;;;32.30;91.80;;;;;;5093620;28;19967;-75
2023/01/18 02:37:17;;;;;;;;;;;32.40;91.40;;;;;;5094211;28;19908;-72
2023/01/18 02:39:52;;;;;;;;;;;32.40;91.20;;;;;;5077668;28;20669;-72
2023/01/18 02:47:56;;;;;;;;;;;32.40;91.00;;;;;;5093729;28;19915;-74
2023/01/18 02:50:25;;;;;;;;;;;32.40;91.20;;;;;;5086420;28;20095;-72
2023/01/18 02:52:52;;;;;;;;;;;32.40;90.60;;;;;;5076744;28;20307;-72
2023/01/18 02:55:34;;;;;;;;;;;32.50;91.20;;;;;;5086045;28;20257;-71
2023/01/18 02:58:26;;;;;;;;;;;32.40;90.60;;;;;;5093334;28;20408;-72
2023/01/18 03:00:59;;;;;;;;;;;32.40;90.50;;;;;;5077138;28;19913;-73
2023/01/18 03:03:26;;;;;;;;;;;32.50;90.70;;;;;;5080163;28;20428;-73
2023/01/18 03:05:55;;;;;;;;;;;32.90;90.10;;;;;;5078562;28;19973;-73
2023/01/18 03:08:25;;;;;;;;;;;32.80;90.50;;;;;;5089458;28;19908;-74
2023/01/18 03:10:58;;;;;;;;;;;32.90;90.60;;;;;;5093295;28;19908;-77
2023/01/18 03:13:45;;;;;;;;;;;33.50;89.10;;;;;;5093323;28;19915;-73
2023/01/18 03:16:21;;;;;;;;;;;33.80;88.50;;;;;;5072668;28;19924;-74
2023/01/18 03:19:00;;;;;;;;;;;34.50;86.60;;;;;;5092470;28;19914;-71
2023/01/18 03:21:47;;;;;;;;;;;34.20;86.00;;;;;;5090673;28;19962;-72
2023/01/18 03:24:15;;;;;;;;;;;33.40;88.00;;;;;;5088867;28;19912;-71
2023/01/18 03:26:45;;;;;;;;;;;32.60;89.90;;;;;;5074612;28;19912;-75
2023/01/18 03:34:58;;;;;;;;;;;31.40;91.70;;;;;;5076406;28;19979;-73
2023/01/18 03:37:28;;;;;;;;;;;31.90;91.10;;;;;;5089434;28;19922;-73
2023/01/18 03:40:02;;;;;;;;;;;32.10;91.10;;;;;;5092025;28;19916;-73
2023/01/18 03:42:52;;;;;;;;;;;32.40;90.00;;;;;;5087143;27;19974;-74
2023/01/18 03:45:27;;;;;;;;;;;32.50;89.70;;;;;;5091769;28;19919;-75
2023/01/18 03:47:54;;;;;;;;;;;32.40;90.20;;;;;;5082766;28;19912;-72
2023/01/18 03:50:28;;;;;;;;;;;32.40;90.00;;;;;;5092033;28;19919;-71
2023/01/18 03:52:57;;;;;;;;;;;33.00;90.00;;;;;;5086313;28;19916;-74
2023/01/18 03:55:32;;;;;;;;;;;34.10;88.10;;;;;;5089881;28;19928;-74
2023/01/18 03:58:09;;;;;;;;;;;34.30;86.80;;;;;;5093928;28;19997;-73
2023/01/18 04:00:39;;;;;;;;;;;34.10;87.30;;;;;;5088153;28;19913;-72
2023/01/18 04:03:06;;;;;;;;;;;33.60;86.90;;;;;;5082297;28;20018;-72
2023/01/18 04:05:34;;;;;;;;;;;33.30;88.50;;;;;;5089910;28;20115;-72
2023/01/18 04:08:00;;;;;;;;;;;33.20;88.90;;;;;;5091842;28;19916;-72
2023/01/18 04:10:27;;;;;;;;;;;33.00;88.20;;;;;;5090969;28;19908;-70
2023/01/18 04:12:54;;;;;;;;;;;32.80;89.60;;;;;;5081128;28;19999;-72
2023/01/18 04:15:20;;;;;;;;;;;33.10;88.10;;;;;;5089628;28;19912;-71
2023/01/18 04:17:51;;;;;;;;;;;32.90;88.90;;;;;;5091049;28;19964;-72
2023/01/18 04:20:18;;;;;;;;;;;32.50;89.70;;;;;;5091667;28;19908;-71
2023/01/18 04:22:50;;;;;;;;;;;32.00;90.50;;;;;;5082512;28;19908;-72
2023/01/18 04:25:17;;;;;;;;;;;32.30;91.00;;;;;;5078766;28;19916;-73
2023/01/18 04:27:43;;;;;;;;;;;33.60;89.00;;;;;;5081670;28;19920;-74
2023/01/18 04:30:10;;;;;;;;;;;34.80;85.10;;;;;;5089491;28;19946;-73
2023/01/18 04:32:38;;;;;;;;;;;36.40;82.70;;;;;;5077575;28;19924;-72
2023/01/18 04:35:05;;;;;;;;;;;37.10;81.00;;;;;;5081382;28;20020;-72
2023/01/18 04:37:32;;;;;;;;;;;36.70;80.30;;;;;;5089340;28;20419;-72
2023/01/18 04:39:59;;;;;;;;;;;35.90;81.70;;;;;;5090065;28;19912;-72
2023/01/18 04:42:26;;;;;;;;;;;35.50;82.70;;;;;;5084659;28;19924;-73
2023/01/18 04:44:53;;;;;;;;;;;34.30;83.80;;;;;;5083210;28;19916;-75
2023/01/18 04:47:19;;;;;;;;;;;33.60;86.00;;;;;;5090586;28;19940;-78
2023/01/18 04:49:46;;;;;;;;;;;32.80;86.50;;;;;;5090287;28;20348;-74
2023/01/18 04:52:12;;;;;;;;;;;32.10;88.60;;;;;;5076863;28;19920;-79
2023/01/18 04:54:39;;;;;;;;;;;31.70;90.30;;;;;;5071214;28;19974;-77
2023/01/18 04:57:06;;;;;;;;;;;31.30;90.60;;;;;;5072680;28;19917;-73
2023/01/18 04:59:32;;;;;;;;;;;31.00;91.50;;;;;;5089073;28;20007;-78
2023/01/18 05:01:59;;;;;;;;;;;30.90;91.20;;;;;;5091350;28;19918;-75
2023/01/18 05:04:26;;;;;;;;;;;30.70;91.20;;;;;;5072306;28;20284;-76
2023/01/18 05:06:53;;;;;;;;;;;30.70;91.60;;;;;;5078411;28;19912;-76
2023/01/18 05:09:19;;;;;;;;;;;30.80;91.80;;;;;;5091364;28;19909;-76
2023/01/18 05:11:46;;;;;;;;;;;31.10;91.10;;;;;;5093097;28;19945;-79
2023/01/18 05:14:13;;;;;;;;;;;30.90;91.30;;;;;;5086837;28;19920;-78
2023/01/18 05:16:40;;;;;;;;;;;30.90;91.60;;;;;;5083021;28;19921;-76
2023/01/18 05:19:06;;;;;;;;;;;30.60;91.90;;;;;;5071388;28;20011;-76
2023/01/18 05:21:33;;;;;;;;;;;30.30;92.50;;;;;;5072807;28;19919;-77
2023/01/18 05:23:59;;;;;;;;;;;29.90;92.90;;;;;;5089765;28;20359;-78
2023/01/18 05:26:26;;;;;;;;;;;29.70;93.00;;;;;;5081705;28;19908;-78
2023/01/18 05:28:56;;;;;;;;;;;29.40;93.80;;;;;;5091130;28;19965;-76
2023/01/18 05:31:23;;;;;;;;;;;29.20;94.30;;;;;;5087788;28;20184;-72
2023/01/18 05:33:49;;;;;;;;;;;29.10;94.50;;;;;;5088636;28;19927;-76
2023/01/18 05:36:16;;;;;;;;;;;29.00;94.70;;;;;;5088865;28;19920;-71
2023/01/18 05:38:43;;;;;;;;;;;29.00;94.70;;;;;;5088377;28;20006;-75
2023/01/18 05:41:10;;;;;;;;;;;28.90;94.90;;;;;;5087222;28;19916;-79
2023/01/18 05:43:37;;;;;;;;;;;28.90;95.00;;;;;;5089021;28;19916;-74
2023/01/18 05:46:04;;;;;;;;;;;28.90;95.30;;;;;;5091944;28;19912;-75
2023/01/18 05:48:30;;;;;;;;;;;28.80;95.20;;;;;;5093475;28;19915;-71
2023/01/18 05:50:57;;;;;;;;;;;28.60;95.50;;;;;;5093235;28;20331;-70
2023/01/18 05:53:24;;;;;;;;;;;28.40;95.80;;;;;;5093569;28;20388;-72
2023/01/18 05:55:58;;;;;;;;;;;28.20;96.20;;;;;;5089558;28;19923;-76
2023/01/18 05:58:27;;;;;;;;;;;28.20;96.20;;;;;;5090195;28;19919;-74
2023/01/18 06:00:57;;;;;;;;;;;28.10;96.20;;;;;;5093723;28;20414;-74
2023/01/18 06:03:24;;;;;;;;;;;28.00;96.30;;;;;;5081398;28;19912;-74
2023/01/18 06:05:51;;;;;;;;;;;27.90;96.70;;;;;;5091279;28;19912;-72
2023/01/18 06:08:18;;;;;;;;;;;27.80;96.90;;;;;;5091790;28;19915;-71
2023/01/18 06:10:51;;;;;;;;;;;27.80;96.90;;;;;;5091991;28;19942;-71
2023/01/18 06:13:17;;;;;;;;;;;27.80;97.00;;;;;;5090215;28;20015;-71
2023/01/18 06:15:45;;;;;;;;;;;27.80;97.10;;;;;;5085262;28;20362;-74
2023/01/18 06:18:12;;;;;;;;;;;27.60;97.10;;;;;;5092113;28;19934;-76
2023/01/18 06:20:39;;;;;;;;;;;27.50;97.70;;;;;;5073982;28;19912;-76
2023/01/18 06:23:05;;;;;;;;;;;27.40;97.70;;;;;;5093229;28;19953;-75
2023/01/18 06:25:32;;;;;;;;;;;27.30;97.90;;;;;;5094166;28;19963;-75
2023/01/18 06:27:59;;;;;;;;;;;27.30;97.90;;;;;;5077692;28;19913;-75
2023/01/18 06:30:26;;;;;;;;;;;27.30;98.00;;;;;;5074157;28;19948;-74
2023/01/18 06:32:52;;;;;;;;;;;27.20;98.30;;;;;;5075164;28;19920;-70
2023/01/18 06:35:20;;;;;;;;;;;27.10;98.20;;;;;;5074785;28;19912;-71
2023/01/18 06:37:47;;;;;;;;;;;27.10;98.50;;;;;;5075037;28;20281;-72
2023/01/18 06:40:14;;;;;;;;;;;27.00;98.60;;;;;;5074566;28;19919;-71
2023/01/18 06:42:41;;;;;;;;;;;26.90;98.60;;;;;;5082959;28;19919;-72
2023/01/18 06:45:08;;;;;;;;;;;26.90;98.80;;;;;;5093031;28;20361;-72
2023/01/18 06:47:35;;;;;;;;;;;26.90;98.80;;;;;;5093239;28;19912;-71
2023/01/18 06:50:01;;;;;;;;;;;26.90;99.00;;;;;;5092370;28;19912;-71
2023/01/18 06:52:28;;;;;;;;;;;26.80;99.10;;;;;;5093656;28;19973;-73
2023/01/18 06:54:55;;;;;;;;;;;26.80;99.20;;;;;;5084122;28;19944;-73
2023/01/18 06:57:22;;;;;;;;;;;26.80;99.40;;;;;;5073571;28;20446;-73
2023/01/18 06:59:52;;;;;;;;;;;26.80;99.40;;;;;;5076973;28;19916;-76
2023/01/18 07:02:19;;;;;;;;;;;26.70;99.40;;;;;;5094397;28;20011;-70
2023/01/18 07:04:46;;;;;;;;;;;26.70;99.60;;;;;;5093233;28;20315;-70
2023/01/18 07:07:13;;;;;;;;;;;26.70;99.50;;;;;;5091548;28;19998;-71
2023/01/18 07:09:40;;;;;;;;;;;26.70;99.60;;;;;;5089532;28;19977;-70
2023/01/18 07:12:07;;;;;;;;;;;26.60;99.50;;;;;;5092552;28;19962;-71
2023/01/18 07:14:33;;;;;;;;;;;26.50;99.80;;;;;;5084964;28;20396;-71
2023/01/18 07:17:00;;;;;;;;;;;26.50;99.90;;;;;;5073579;28;19920;-72
2023/01/18 07:19:27;;;;;;;;;;;26.50;99.90;;;;;;5082732;28;19974;-73
2023/01/18 07:21:53;;;;;;;;;;;26.60;99.90;;;;;;5093885;28;19916;-74
2023/01/18 07:24:21;;;;;;;;;;;26.60;99.90;;;;;;5093683;28;20003;-71
2023/01/18 07:26:47;;;;;;;;;;;26.60;99.90;;;;;;5093171;28;20587;-73
2023/01/18 07:29:14;;;;;;;;;;;26.60;99.90;;;;;;5082225;28;19912;-72
2023/01/18 07:31:41;;;;;;;;;;;26.60;99.90;;;;;;5083815;28;20365;-75
2023/01/18 07:34:10;;;;;;;;;;;26.60;99.90;;;;;;5080735;28;20322;-72
2023/01/18 07:36:38;;;;;;;;;;;26.60;99.90;;;;;;5092929;28;20424;-71
2023/01/18 07:39:05;;;;;;;;;;;26.60;99.90;;;;;;5092475;28;20041;-76
2023/01/18 07:41:32;;;;;;;;;;;26.50;99.90;;;;;;5089475;28;20003;-72
2023/01/18 07:43:58;;;;;;;;;;;26.40;99.90;;;;;;5091643;28;20384;-72
2023/01/18 07:46:25;;;;;;;;;;;26.40;99.90;;;;;;5075641;28;19919;-72
2023/01/18 07:48:52;;;;;;;;;;;26.30;99.90;;;;;;5088041;28;19912;-72
2023/01/18 07:51:20;;;;;;;;;;;26.30;99.90;;;;;;5090694;28;19957;-73
2023/01/18 07:53:47;;;;;;;;;;;26.30;99.90;;;;;;5088773;28;19912;-72
2023/01/18 07:56:16;;;;;;;;;;;26.30;99.90;;;;;;5088367;28;19916;-72
2023/01/18 07:58:43;;;;;;;;;;;26.20;99.90;;;;;;5091542;28;19999;-71
2023/01/18 08:01:10;;;;;;;;;;;26.20;99.90;;;;;;5090110;28;19912;-71
2023/01/18 08:03:37;;;;;;;;;;;26.30;99.90;;;;;;5087611;28;20057;-70
2023/01/18 08:06:06;;;;;;;;;;;26.30;99.90;;;;;;5087773;28;19912;-71
2023/01/18 08:08:33;;;;;;;;;;;26.30;99.90;;;;;;5091496;28;20377;-71
2023/01/18 08:11:00;;;;;;;;;;;26.30;99.90;;;;;;5091068;28;19995;-73
2023/01/18 08:13:27;;;;;;;;;;;26.20;99.90;;;;;;5090661;28;19912;-72
2023/01/18 08:15:54;;;;;;;;;;;26.20;99.90;;;;;;5089640;28;20292;-71
2023/01/18 08:18:22;;;;;;;;;;;26.10;99.90;;;;;;5090580;28;19908;-70
2023/01/18 08:20:49;;;;;;;;;;;26.10;99.90;;;;;;5089687;28;19908;-73
2023/01/18 08:23:16;;;;;;;;;;;26.10;99.90;;;;;;5090251;28;19916;-72
2023/01/18 08:25:42;;;;;;;;;;;26.10;99.90;;;;;;5090501;28;19916;-73
2023/01/18 08:28:10;;;;;;;;;;;26.10;99.90;;;;;;5090041;28;20003;-71
2023/01/18 08:30:37;;;;;;;;;;;26.10;99.90;;;;;;5091189;28;19915;-72
2023/01/18 08:33:05;;;;;;;;;;;26.10;99.90;;;;;;5089063;28;19952;-72
2023/01/18 08:35:33;;;;;;;;;;;26.10;99.90;;;;;;5086746;28;20612;-72
2023/01/18 08:38:03;;;;;;;;;;;26.00;99.90;;;;;;5088758;28;20146;-72
2023/01/18 08:40:30;;;;;;;;;;;26.00;99.90;;;;;;5083000;28;19922;-72
2023/01/18 08:42:58;;;;;;;;;;;26.00;99.90;;;;;;5072250;28;19908;-71
2023/01/18 08:45:25;;;;;;;;;;;26.10;99.90;;;;;;5082880;28;20425;-72
2023/01/18 08:47:56;;;;;;;;;;;26.00;99.90;;;;;;5090653;28;19908;-68
2023/01/18 08:50:22;;;;;;;;;;;25.90;99.90;;;;;;5088298;28;19916;-67
2023/01/18 08:52:52;;;;;;;;;;;25.90;99.90;;;;;;5083052;28;20357;-68
2023/01/18 08:55:20;;;;;;;;;;;25.90;99.90;;;;;;5091424;28;20287;-67
2023/01/18 08:57:47;;;;;;;;;;;25.90;99.90;;;;;;5091755;28;19923;-69
2023/01/18 09:00:14;;;;;;;;;;;25.90;99.90;;;;;;5090481;28;20412;-69
2023/01/18 09:02:41;;;;;;;;;;;25.90;99.90;;;;;;5091418;28;20395;-69
2023/01/18 09:05:08;;;;;;;;;;;25.90;99.90;;;;;;5092185;28;19908;-69
2023/01/18 09:07:34;;;;;;;;;;;25.90;99.90;;;;;;5092049;28;19961;-68
2023/01/18 09:10:01;;;;;;;;;;;25.80;99.90;;;;;;5091954;28;20434;-69
2023/01/18 09:12:28;;;;;;;;;;;25.80;99.90;;;;;;5080920;28;19920;-67
2023/01/18 09:14:54;;;;;;;;;;;25.80;99.90;;;;;;5090026;28;19919;-69
2023/01/18 09:17:21;;;;;;;;;;;25.80;99.90;;;;;;5090883;28;19927;-69
2023/01/18 09:19:48;;;;;;;;;;;25.80;99.90;;;;;;5092480;28;20361;-67
2023/01/18 09:22:14;;;;;;;;;;;25.90;99.90;;;;;;5095179;28;19921;-69
2023/01/18 09:24:41;;;;;;;;;;;26.00;99.90;;;;;;5080083;28;19912;-68
2023/01/18 09:27:08;;;;;;;;;;;26.00;99.90;;;;;;5075769;28;20357;-69
2023/01/18 09:29:35;;;;;;;;;;;26.00;99.90;;;;;;5095229;28;20311;-67
2023/01/18 09:32:01;;;;;;;;;;;26.10;99.90;;;;;;5076959;28;19912;-68
2023/01/18 09:34:28;;;;;;;;;;;26.20;99.90;;;;;;5093634;28;19924;-66
2023/01/18 09:36:55;;;;;;;;;;;26.20;99.90;;;;;;5094028;28;19920;-68
2023/01/18 09:39:21;;;;;;;;;;;26.30;99.90;;;;;;5094867;28;19916;-69
2023/01/18 09:41:53;;;;;;;;;;;26.30;99.90;;;;;;5094743;28;19915;-69
2023/01/18 09:44:20;;;;;;;;;;;26.30;99.90;;;;;;5076378;28;20317;-69
2023/01/18 09:46:50;;;;;;;;;;;26.20;99.90;;;;;;5074570;28;19960;-66
2023/01/18 09:49:37;;;;;;;;;;;26.10;99.90;;;;;;5075000;28;19912;-68
2023/01/18 09:52:06;;;;;;;;;;;25.90;99.90;;;;;;5085895;28;19915;-68
2023/01/18 09:54:45;;;;;;;;;;;25.70;99.90;;;;;;5094289;28;20386;-68
2023/01/18 09:57:19;;;;;;;;;;;25.60;99.90;;;;;;5074926;28;20432;-67
2023/01/18 09:59:57;;;;;;;;;;;25.50;99.90;;;;;;5075114;28;19916;-70
2023/01/18 10:02:29;;;;;;;;;;;25.30;99.90;;;;;;5086746;28;19916;-69
2023/01/18 10:04:59;;;;;;;;;;;25.20;99.90;;;;;;5094243;28;19999;-68
2023/01/18 10:07:29;;;;;;;;;;;25.00;99.90;;;;;;5093571;28;19912;-68
2023/01/18 10:10:00;;;;;;;;;;;24.90;99.90;;;;;;5092643;28;19979;-68
2023/01/18 10:12:32;;;;;;;;;;;24.80;99.90;;;;;;5093714;28;19912;-67
2023/01/18 10:15:00;;;;;;;;;;;24.60;99.90;;;;;;5092049;28;19991;-66
2023/01/18 10:17:34;;;;;;;;;;;24.60;99.90;;;;;;5092967;28;20384;-66
2023/01/18 10:20:01;;;;;;;;;;;24.50;99.90;;;;;;5091551;28;20416;-66
2023/01/18 10:22:31;;;;;;;;;;;24.40;99.90;;;;;;5093038;28;19919;-66
2023/01/18 10:25:17;;;;;;;;;;;24.30;99.90;;;;;;5092343;28;20318;-66
2023/01/18 10:27:47;;;;;;;;;;;24.30;99.90;;;;;;5087535;28;19921;-67
2023/01/18 10:30:27;;;;;;;;;;;24.30;99.90;;;;;;5092709;28;19919;-68
2023/01/18 10:33:02;;;;;;;;;;;24.20;99.90;;;;;;5092507;28;19973;-67
2023/01/18 10:35:29;;;;;;;;;;;24.20;99.90;;;;;;5091624;28;19912;-68
2023/01/18 10:37:58;;;;;;;;;;;24.10;99.90;;;;;;5093569;28;20049;-67
2023/01/18 10:40:25;;;;;;;;;;;23.90;99.90;;;;;;5084646;28;19912;-66
2023/01/18 10:42:55;;;;;;;;;;;23.90;99.90;;;;;;5093781;28;19916;-67
2023/01/18 10:45:32;;;;;;;;;;;23.80;99.90;;;;;;5093542;28;19912;-66
2023/01/18 10:48:05;;;;;;;;;;;23.80;99.90;;;;;;5092759;28;19914;-67
2023/01/18 10:50:41;;;;;;;;;;;23.70;99.90;;;;;;5089715;28;19981;-67
2023/01/18 10:53:24;;;;;;;;;;;23.70;99.90;;;;;;5087842;28;19912;-66
2023/01/18 10:56:01;;;;;;;;;;;23.70;99.90;;;;;;5090935;28;19965;-66
2023/01/18 10:58:45;;;;;;;;;;;23.60;99.90;;;;;;5089112;28;19955;-64
2023/01/18 11:01:13;;;;;;;;;;;23.70;99.90;;;;;;5089527;28;19948;-69
2023/01/18 11:03:44;;;;;;;;;;;23.60;99.90;;;;;;5090077;28;19919;-67
2023/01/18 11:06:10;;;;;;;;;;;23.60;99.90;;;;;;5090135;28;19923;-67
2023/01/18 11:08:37;;;;;;;;;;;23.60;99.90;;;;;;5092772;28;19919;-68
2023/01/18 11:11:06;;;;;;;;;;;23.50;99.90;;;;;;5092100;28;19939;-67
2023/01/18 11:13:34;;;;;;;;;;;23.50;99.90;;;;;;5094107;28;20342;-68
2023/01/18 11:16:05;;;;;;;;;;;23.50;99.90;;;;;;5076540;28;19920;-67
2023/01/18 11:18:32;;;;;;;;;;;23.50;99.90;;;;;;5073792;28;19908;-66
2023/01/18 11:20:58;;;;;;;;;;;23.40;99.90;;;;;;5074616;28;19913;-66
2023/01/18 11:23:31;;;;;;;;;;;23.50;99.90;;;;;;5079945;28;19935;-67
2023/01/18 11:26:03;;;;;;;;;;;23.40;99.90;;;;;;5093088;28;19908;-67
2023/01/18 11:28:39;;;;;;;;;;;23.50;99.90;;;;;;5093598;28;19915;-66
2023/01/18 11:31:10;;;;;;;;;;;23.50;99.90;;;;;;5093133;28;19943;-65
2023/01/18 11:33:39;;;;;;;;;;;23.40;99.90;;;;;;5089819;28;19928;-66
2023/01/18 11:36:06;;;;;;;;;;;23.40;99.90;;;;;;5082484;28;19965;-66
2023/01/18 11:38:33;;;;;;;;;;;23.20;99.90;;;;;;5093712;28;19915;-67
2023/01/18 11:41:05;;;;;;;;;;;23.20;99.90;;;;;;5093061;28;19912;-66
2023/01/18 11:43:34;;;;;;;;;;;23.10;99.90;;;;;;5092966;28;19939;-67
2023/01/18 11:46:21;;;;;;;;;;;23.20;99.90;;;;;;5093475;28;19987;-66
2023/01/18 11:48:51;;;;;;;;;;;23.20;99.90;;;;;;5072139;28;19935;-66
2023/01/18 11:51:43;;;;;;;;;;;23.10;99.90;;;;;;5073142;28;19916;-66
2023/01/18 11:54:29;;;;;;;;;;;23.10;99.90;;;;;;5072871;28;19948;-67
2023/01/18 11:57:01;;;;;;;;;;;23.10;99.90;;;;;;5072593;28;20377;-67
2023/01/18 11:59:33;;;;;;;;;;;23.10;99.90;;;;;;5073812;28;20388;-67
2023/01/18 12:02:18;;;;;;;;;;;22.90;99.90;;;;;;5072697;28;19963;-67
2023/01/18 12:04:51;;;;;;;;;;;22.90;99.90;;;;;;5073008;28;20365;-67
2023/01/18 12:07:27;;;;;;;;;;;23.00;99.90;;;;;;5072845;28;19915;-67
2023/01/18 12:09:59;;;;;;;;;;;23.00;99.90;;;;;;5081954;28;19923;-67
2023/01/18 12:12:34;;;;;;;;;;;23.00;99.90;;;;;;5093005;28;19922;-67
2023/01/18 12:15:08;;;;;;;;;;;23.00;99.90;;;;;;5092855;28;19908;-67
2023/01/18 12:17:52;;;;;;;;;;;23.00;99.90;;;;;;5092820;28;19916;-66
2023/01/18 12:20:38;;;;;;;;;;;23.00;99.90;;;;;;5092824;28;20371;-67
2023/01/18 12:23:23;;;;;;;;;;;23.10;99.90;;;;;;5072322;28;19912;-66
2023/01/18 12:26:02;;;;;;;;;;;23.00;99.90;;;;;;5072494;28;19951;-67
2023/01/18 12:28:35;;;;;;;;;;;23.00;99.90;;;;;;5084482;28;19951;-66
2023/01/18 12:31:01;;;;;;;;;;;23.00;99.90;;;;;;5086879;28;19936;-66
2023/01/18 12:33:31;;;;;;;;;;;22.90;99.90;;;;;;5072376;28;19924;-66
2023/01/18 12:35:57;;;;;;;;;;;22.90;99.90;;;;;;5072172;28;19923;-67
2023/01/18 12:38:31;;;;;;;;;;;22.90;99.90;;;;;;5071879;28;19935;-65
2023/01/18 12:41:13;;;;;;;;;;;22.90;99.90;;;;;;5072144;28;19912;-65
2023/01/18 12:44:00;;;;;;;;;;;22.90;99.90;;;;;;5083428;28;20570;-67
2023/01/18 12:46:46;;;;;;;;;;;22.90;99.90;;;;;;5070382;28;20019;-65
2023/01/18 12:49:17;;;;;;;;;;;22.90;99.90;;;;;;5092354;28;20309;-66
2023/01/18 12:51:49;;;;;;;;;;;23.00;99.90;;;;;;5092177;28;19912;-66
2023/01/18 12:54:25;;;;;;;;;;;23.00;99.90;;;;;;5088726;28;20351;-65
2023/01/18 12:56:52;;;;;;;;;;;22.90;99.90;;;;;;5071658;28;19923;-66
2023/01/18 12:59:21;;;;;;;;;;;23.00;99.90;;;;;;5072050;28;19935;-67
2023/01/18 13:01:59;;;;;;;;;;;23.00;99.90;;;;;;5083556;28;19912;-66
2023/01/18 13:04:39;;;;;;;;;;;23.10;99.90;;;;;;5091225;28;19963;-65
2023/01/18 13:07:10;;;;;;;;;;;23.00;99.90;;;;;;5091107;28;19908;-66
2023/01/18 13:09:39;;;;;;;;;;;23.10;99.90;;;;;;5091846;28;19908;-65
2023/01/18 13:12:06;;;;;;;;;;;23.10;99.90;;;;;;5078759;28;19916;-67
2023/01/18 13:14:38;;;;;;;;;;;23.10;99.90;;;;;;5071835;28;19913;-68
2023/01/18 13:17:13;;;;;;;;;;;23.10;99.90;;;;;;5072168;28;20045;-67
2023/01/18 13:19:53;;;;;;;;;;;23.10;99.90;;;;;;5072314;28;19909;-66
2023/01/18 13:22:35;;;;;;;;;;;23.10;99.90;;;;;;5072862;28;20293;-66
2023/01/18 13:25:01;;;;;;;;;;;23.10;99.90;;;;;;5090484;28;19915;-66
2023/01/18 13:27:30;;;;;;;;;;;23.10;99.90;;;;;;5091781;28;19988;-66
2023/01/18 13:30:05;;;;;;;;;;;23.10;99.90;;;;;;5092116;28;19908;-64
2023/01/18 13:32:36;;;;;;;;;;;23.00;99.90;;;;;;5092055;28;20634;-65
2023/01/18 13:35:06;;;;;;;;;;;23.00;99.90;;;;;;5085602;28;19927;-66
2023/01/18 13:37:44;;;;;;;;;;;23.00;99.90;;;;;;5071400;28;19916;-66
2023/01/18 13:40:33;;;;;;;;;;;23.00;99.90;;;;;;5071642;28;19909;-66
2023/01/18 13:43:00;;;;;;;;;;;23.00;99.90;;;;;;5066224;28;19931;-65
2023/01/18 13:45:27;;;;;;;;;;;23.00;99.90;;;;;;5084855;28;20065;-65
2023/01/18 13:47:56;;;;;;;;;;;23.00;99.90;;;;;;5091831;28;19915;-67
2023/01/18 13:50:34;;;;;;;;;;;23.00;99.90;;;;;;5092817;28;19915;-66
2023/01/18 13:53:13;;;;;;;;;;;23.00;99.90;;;;;;5092453;28;20316;-66
2023/01/18 13:55:52;;;;;;;;;;;23.00;99.90;;;;;;5091402;28;19912;-66
2023/01/18 13:58:28;;;;;;;;;;;23.00;99.90;;;;;;5071885;28;20357;-67
2023/01/18 14:00:57;;;;;;;;;;;23.00;99.90;;;;;;5071879;28;19908;-66
2023/01/18 14:03:28;;;;;;;;;;;23.00;99.90;;;;;;5071697;28;19909;-67
2023/01/18 14:05:57;;;;;;;;;;;22.90;99.90;;;;;;5072553;28;19909;-67
2023/01/18 14:08:30;;;;;;;;;;;22.90;99.90;;;;;;5076828;28;20281;-66
2023/01/18 14:11:05;;;;;;;;;;;22.90;99.90;;;;;;5095191;28;19957;-65
2023/01/18 14:13:47;;;;;;;;;;;22.80;99.90;;;;;;5095498;28;19940;-65
2023/01/18 14:16:27;;;;;;;;;;;22.80;99.90;;;;;;5094241;28;20308;-66
2023/01/18 14:18:54;;;;;;;;;;;22.70;99.90;;;;;;5095523;28;19923;-66
2023/01/18 14:21:21;;;;;;;;;;;22.70;99.90;;;;;;5083519;28;20011;-68
2023/01/18 14:23:47;;;;;;;;;;;22.70;99.90;;;;;;5075173;28;19934;-67
2023/01/18 14:26:16;;;;;;;;;;;22.70;99.90;;;;;;5074973;28;20344;-66
2023/01/18 14:28:47;;;;;;;;;;;22.80;99.90;;;;;;5075233;28;20008;-67
2023/01/18 14:31:20;;;;;;;;;;;22.80;99.90;;;;;;5075052;28;20011;-66
2023/01/18 14:33:48;;;;;;;;;;;22.70;99.90;;;;;;5088127;28;19927;-66
2023/01/18 14:36:22;;;;;;;;;;;22.70;99.90;;;;;;5095110;28;19924;-66
2023/01/18 14:39:11;;;;;;;;;;;22.60;99.90;;;;;;5095188;28;19908;-66
2023/01/18 14:41:42;;;;;;;;;;;22.60;99.90;;;;;;5094509;28;19943;-66
2023/01/18 14:44:32;;;;;;;;;;;22.60;99.90;;;;;;5085873;28;20663;-66
2023/01/18 14:46:59;;;;;;;;;;;22.50;99.90;;;;;;5093106;28;19912;-66
2023/01/18 14:49:37;;;;;;;;;;;22.50;99.90;;;;;;5094088;28;19912;-66
2023/01/18 14:52:06;;;;;;;;;;;22.60;99.90;;;;;;5095082;28;19954;-67
2023/01/18 14:54:32;;;;;;;;;;;22.50;99.90;;;;;;5094886;28;19927;-66
2023/01/18 14:57:00;;;;;;;;;;;22.50;99.90;;;;;;5094161;28;19916;-67
2023/01/18 14:59:29;;;;;;;;;;;22.50;99.90;;;;;;5093510;28;19926;-66
2023/01/18 15:02:01;;;;;;;;;;;22.60;99.90;;;;;;5094341;28;19908;-67
2023/01/18 15:04:28;;;;;;;;;;;22.60;99.90;;;;;;5094311;28;19908;-67